Aviation Digital Data Service (ADDS)

Output produced by METARs form (0604 UTC 25 June 2018)
found at http://www.aviationweather.gov/adds/metars/
 
OKBK 250600Z 35014KT CAVOK 38/09 Q1002 NOSIG
TAF OKBK 250445Z 2506/2612 34008G20KT 8000 SKC 
     TEMPO 2506/2515 4000 BLDU